sensor_id;sensor_type;location;lat;lon;timestamp;pressure;altitude;pressure_sealevel;temperature;humidity
9717;BME280;4897;43.570;27.832;2024-01-07T00:01:49;98102.34;;;12.23;100.00
9717;BME280;4897;43.570;27.832;2024-01-07T00:04:18;98093.81;;;12.11;100.00
9717;BME280;4897;43.570;27.832;2024-01-07T00:06:46;98098.00;;;12.06;100.00
9717;BME280;4897;43.570;27.832;2024-01-07T00:09:13;98103.03;;;12.17;100.00
9717;BME280;4897;43.570;27.832;2024-01-07T00:11:40;98102.03;;;12.26;100.00
9717;BME280;4897;43.570;27.832;2024-01-07T00:14:08;98072.06;;;12.30;100.00
9717;BME280;4897;43.570;27.832;2024-01-07T00:16:35;98075.25;;;12.26;100.00
9717;BME280;4897;43.570;27.832;2024-01-07T00:19:02;98093.50;;;12.30;100.00
9717;BME280;4897;43.570;27.832;2024-01-07T00:21:30;98094.31;;;12.31;100.00
9717;BME280;4897;43.570;27.832;2024-01-07T00:23:57;98114.09;;;12.22;100.00
9717;BME280;4897;43.570;27.832;2024-01-07T00:26:24;98105.88;;;12.07;100.00
9717;BME280;4897;43.570;27.832;2024-01-07T00:28:51;98089.25;;;11.87;100.00
9717;BME280;4897;43.570;27.832;2024-01-07T00:31:18;97939.00;;;10.75;100.00
9717;BME280;4897;43.570;27.832;2024-01-07T00:33:45;97994.63;;;11.13;100.00
9717;BME280;4897;43.570;27.832;2024-01-07T00:36:12;98100.91;;;11.70;100.00
9717;BME280;4897;43.570;27.832;2024-01-07T00:38:40;98094.06;;;11.68;100.00
9717;BME280;4897;43.570;27.832;2024-01-07T00:41:07;98083.81;;;11.63;100.00
9717;BME280;4897;43.570;27.832;2024-01-07T00:43:34;98106.59;;;11.67;100.00
9717;BME280;4897;43.570;27.832;2024-01-07T00:46:01;98107.59;;;11.66;100.00
9717;BME280;4897;43.570;27.832;2024-01-07T00:48:27;98096.34;;;11.63;100.00
9717;BME280;4897;43.570;27.832;2024-01-07T00:50:54;98084.25;;;11.51;100.00
9717;BME280;4897;43.570;27.832;2024-01-07T00:53:21;98103.19;;;11.57;100.00
9717;BME280;4897;43.570;27.832;2024-01-07T00:55:52;98093.94;;;11.52;100.00
9717;BME280;4897;43.570;27.832;2024-01-07T00:58:19;98091.81;;;11.55;100.00
9717;BME280;4897;43.570;27.832;2024-01-07T01:00:49;98090.13;;;11.54;100.00
9717;BME280;4897;43.570;27.832;2024-01-07T01:03:16;98048.00;;;11.22;100.00
9717;BME280;4897;43.570;27.832;2024-01-07T01:05:43;98073.56;;;11.51;100.00
9717;BME280;4897;43.570;27.832;2024-01-07T01:08:12;98056.78;;;11.41;100.00
9717;BME280;4897;43.570;27.832;2024-01-07T01:10:39;98051.03;;;11.19;100.00
9717;BME280;4897;43.570;27.832;2024-01-07T01:13:08;98064.75;;;11.24;100.00
9717;BME280;4897;43.570;27.832;2024-01-07T01:15:34;98084.81;;;11.28;100.00
9717;BME280;4897;43.570;27.832;2024-01-07T01:18:01;98071.88;;;11.16;100.00
9717;BME280;4897;43.570;27.832;2024-01-07T01:20:28;98049.09;;;11.04;100.00
9717;BME280;4897;43.570;27.832;2024-01-07T01:22:55;98089.00;;;11.23;100.00
9717;BME280;4897;43.570;27.832;2024-01-07T01:25:22;98059.66;;;11.05;100.00
9717;BME280;4897;43.570;27.832;2024-01-07T01:27:49;98059.84;;;11.12;100.00
9717;BME280;4897;43.570;27.832;2024-01-07T01:30:17;98047.28;;;11.04;100.00
9717;BME280;4897;43.570;27.832;2024-01-07T01:32:44;98031.03;;;10.98;100.00
9717;BME280;4897;43.570;27.832;2024-01-07T01:35:11;97926.75;;;10.30;100.00
9717;BME280;4897;43.570;27.832;2024-01-07T01:37:38;98061.72;;;10.86;100.00
9717;BME280;4897;43.570;27.832;2024-01-07T01:40:06;98072.63;;;10.92;100.00
9717;BME280;4897;43.570;27.832;2024-01-07T01:42:33;98074.41;;;10.84;100.00
9717;BME280;4897;43.570;27.832;2024-01-07T01:45:00;98035.53;;;10.64;100.00
9717;BME280;4897;43.570;27.832;2024-01-07T01:47:29;98029.13;;;10.57;100.00
9717;BME280;4897;43.570;27.832;2024-01-07T01:49:57;98046.53;;;10.61;100.00
9717;BME280;4897;43.570;27.832;2024-01-07T01:52:24;98053.19;;;10.57;100.00
9717;BME280;4897;43.570;27.832;2024-01-07T01:54:52;98041.75;;;10.47;100.00
9717;BME280;4897;43.570;27.832;2024-01-07T01:57:21;98055.34;;;10.53;100.00
9717;BME280;4897;43.570;27.832;2024-01-07T01:59:49;98058.13;;;10.52;100.00
9717;BME280;4897;43.570;27.832;2024-01-07T02:02:16;98044.44;;;10.47;100.00
9717;BME280;4897;43.570;27.832;2024-01-07T02:04:44;98052.28;;;10.48;100.00
9717;BME280;4897;43.570;27.832;2024-01-07T02:07:11;98044.31;;;10.56;100.00
9717;BME280;4897;43.570;27.832;2024-01-07T02:09:38;98020.00;;;10.41;100.00
9717;BME280;4897;43.570;27.832;2024-01-07T02:12:06;98043.97;;;10.51;100.00
9717;BME280;4897;43.570;27.832;2024-01-07T02:14:37;98034.59;;;10.47;100.00
9717;BME280;4897;43.570;27.832;2024-01-07T02:17:04;98027.94;;;10.51;100.00
9717;BME280;4897;43.570;27.832;2024-01-07T02:19:31;98024.84;;;10.64;100.00
9717;BME280;4897;43.570;27.832;2024-01-07T02:21:59;98022.75;;;10.58;100.00
9717;BME280;4897;43.570;27.832;2024-01-07T02:24:28;98019.75;;;10.53;100.00
9717;BME280;4897;43.570;27.832;2024-01-07T02:26:55;97996.41;;;10.37;100.00
9717;BME280;4897;43.570;27.832;2024-01-07T02:29:22;98022.72;;;10.50;100.00
9717;BME280;4897;43.570;27.832;2024-01-07T02:31:49;98008.88;;;10.28;100.00
9717;BME280;4897;43.570;27.832;2024-01-07T02:34:16;98036.72;;;10.43;100.00
9717;BME280;4897;43.570;27.832;2024-01-07T02:36:45;98018.88;;;10.26;100.00
9717;BME280;4897;43.570;27.832;2024-01-07T02:39:11;98023.69;;;10.40;100.00
9717;BME280;4897;43.570;27.832;2024-01-07T02:41:40;98008.34;;;10.25;100.00
9717;BME280;4897;43.570;27.832;2024-01-07T02:44:07;98025.69;;;10.21;100.00
9717;BME280;4897;43.570;27.832;2024-01-07T02:46:33;97995.84;;;10.08;100.00
9717;BME280;4897;43.570;27.832;2024-01-07T02:49:00;98005.25;;;10.12;100.00
9717;BME280;4897;43.570;27.832;2024-01-07T02:51:27;97983.94;;;10.02;100.00
9717;BME280;4897;43.570;27.832;2024-01-07T02:53:54;98002.44;;;10.13;100.00
9717;BME280;4897;43.570;27.832;2024-01-07T02:56:21;98005.84;;;10.23;100.00
9717;BME280;4897;43.570;27.832;2024-01-07T02:58:49;98005.38;;;10.28;100.00
9717;BME280;4897;43.570;27.832;2024-01-07T03:01:16;97998.28;;;10.19;100.00
9717;BME280;4897;43.570;27.832;2024-01-07T03:03:43;97962.97;;;10.07;100.00
9717;BME280;4897;43.570;27.832;2024-01-07T03:06:10;97999.88;;;10.29;100.00
9717;BME280;4897;43.570;27.832;2024-01-07T03:08:37;98002.09;;;10.34;100.00
9717;BME280;4897;43.570;27.832;2024-01-07T03:11:05;97997.47;;;10.44;100.00
9717;BME280;4897;43.570;27.832;2024-01-07T03:13:32;97989.63;;;10.42;100.00
9717;BME280;4897;43.570;27.832;2024-01-07T03:16:03;97970.03;;;10.34;100.00
9717;BME280;4897;43.570;27.832;2024-01-07T03:18:33;97955.13;;;10.31;100.00
9717;BME280;4897;43.570;27.832;2024-01-07T03:21:00;97967.41;;;10.42;100.00
9717;BME280;4897;43.570;27.832;2024-01-07T03:23:27;97965.59;;;10.51;100.00
9717;BME280;4897;43.570;27.832;2024-01-07T03:25:54;97971.94;;;10.50;100.00
9717;BME280;4897;43.570;27.832;2024-01-07T03:28:21;97960.69;;;10.38;100.00
9717;BME280;4897;43.570;27.832;2024-01-07T03:30:47;97941.78;;;10.31;100.00
9717;BME280;4897;43.570;27.832;2024-01-07T03:33:16;97951.56;;;10.49;100.00
9717;BME280;4897;43.570;27.832;2024-01-07T03:35:43;97961.94;;;10.52;100.00
9717;BME280;4897;43.570;27.832;2024-01-07T03:38:11;97930.19;;;10.49;100.00
9717;BME280;4897;43.570;27.832;2024-01-07T03:40:38;97961.38;;;10.74;100.00
9717;BME280;4897;43.570;27.832;2024-01-07T03:43:05;97940.94;;;10.65;100.00
9717;BME280;4897;43.570;27.832;2024-01-07T03:45:32;97955.03;;;10.75;100.00
9717;BME280;4897;43.570;27.832;2024-01-07T03:47:58;97955.03;;;10.75;100.00
9717;BME280;4897;43.570;27.832;2024-01-07T03:50:27;97940.94;;;10.65;100.00
9717;BME280;4897;43.570;27.832;2024-01-07T03:52:53;97944.19;;;10.76;100.00
9717;BME280;4897;43.570;27.832;2024-01-07T03:55:20;97950.34;;;10.77;100.00
9717;BME280;4897;43.570;27.832;2024-01-07T03:57:47;97947.69;;;10.77;100.00
9717;BME280;4897;43.570;27.832;2024-01-07T04:00:14;97939.66;;;10.77;100.00
9717;BME280;4897;43.570;27.832;2024-01-07T04:02:41;97937.63;;;10.71;100.00
9717;BME280;4897;43.570;27.832;2024-01-07T04:05:09;97936.44;;;10.65;100.00
9717;BME280;4897;43.570;27.832;2024-01-07T04:07:38;97921.91;;;10.60;100.00
9717;BME280;4897;43.570;27.832;2024-01-07T04:10:05;97922.72;;;10.60;100.00
9717;BME280;4897;43.570;27.832;2024-01-07T04:12:32;97918.22;;;10.61;100.00
9717;BME280;4897;43.570;27.832;2024-01-07T04:14:59;97929.09;;;10.67;100.00
9717;BME280;4897;43.570;27.832;2024-01-07T04:17:26;97928.78;;;10.70;100.00
9717;BME280;4897;43.570;27.832;2024-01-07T04:19:53;97925.31;;;10.78;100.00
9717;BME280;4897;43.570;27.832;2024-01-07T04:22:20;97919.97;;;10.78;100.00
9717;BME280;4897;43.570;27.832;2024-01-07T04:24:48;97922.66;;;10.86;100.00
9717;BME280;4897;43.570;27.832;2024-01-07T04:27:15;97910.94;;;10.87;100.00
9717;BME280;4897;43.570;27.832;2024-01-07T04:29:41;97918.34;;;10.93;100.00
9717;BME280;4897;43.570;27.832;2024-01-07T04:32:08;97908.25;;;10.79;100.00
9717;BME280;4897;43.570;27.832;2024-01-07T04:34:35;97925.34;;;10.94;100.00
9717;BME280;4897;43.570;27.832;2024-01-07T04:37:03;97889.53;;;10.79;100.00
9717;BME280;4897;43.570;27.832;2024-01-07T04:39:30;97910.06;;;10.70;100.00
9717;BME280;4897;43.570;27.832;2024-01-07T04:41:58;97886.84;;;10.71;100.00
9717;BME280;4897;43.570;27.832;2024-01-07T04:44:25;97927.63;;;10.73;100.00
9717;BME280;4897;43.570;27.832;2024-01-07T04:46:52;97922.06;;;10.66;100.00
9717;BME280;4897;43.570;27.832;2024-01-07T04:49:19;97909.00;;;10.55;100.00
9717;BME280;4897;43.570;27.832;2024-01-07T04:51:45;97912.88;;;10.61;100.00
9717;BME280;4897;43.570;27.832;2024-01-07T04:54:12;97919.06;;;10.61;100.00
9717;BME280;4897;43.570;27.832;2024-01-07T04:56:39;97918.22;;;10.61;100.00
9717;BME280;4897;43.570;27.832;2024-01-07T04:59:07;97920.72;;;10.62;100.00
9717;BME280;4897;43.570;27.832;2024-01-07T05:01:34;97862.34;;;10.41;100.00
9717;BME280;4897;43.570;27.832;2024-01-07T05:04:01;97912.56;;;10.64;100.00
9717;BME280;4897;43.570;27.832;2024-01-07T05:06:28;97899.78;;;10.50;100.00
9717;BME280;4897;43.570;27.832;2024-01-07T05:08:55;97896.16;;;10.59;100.00
9717;BME280;4897;43.570;27.832;2024-01-07T05:11:22;97898.84;;;10.59;100.00
9717;BME280;4897;43.570;27.832;2024-01-07T05:13:49;97895.84;;;10.62;100.00
9717;BME280;4897;43.570;27.832;2024-01-07T05:16:20;97890.31;;;10.55;100.00
9717;BME280;4897;43.570;27.832;2024-01-07T05:18:47;97886.13;;;10.61;100.00
9717;BME280;4897;43.570;27.832;2024-01-07T05:21:14;97892.34;;;10.69;100.00
9717;BME280;4897;43.570;27.832;2024-01-07T05:23:41;97890.56;;;10.78;100.00
9717;BME280;4897;43.570;27.832;2024-01-07T05:26:08;97860.00;;;10.80;100.00
9717;BME280;4897;43.570;27.832;2024-01-07T05:28:36;97878.28;;;11.09;100.00
9717;BME280;4897;43.570;27.832;2024-01-07T05:31:03;97860.88;;;11.13;100.00
9717;BME280;4897;43.570;27.832;2024-01-07T05:33:31;97868.91;;;11.21;100.00
9717;BME280;4897;43.570;27.832;2024-01-07T05:35:59;97858.72;;;11.24;100.00
9717;BME280;4897;43.570;27.832;2024-01-07T05:38:26;97848.84;;;11.25;100.00
9717;BME280;4897;43.570;27.832;2024-01-07T05:40:52;97784.28;;;11.04;100.00
9717;BME280;4897;43.570;27.832;2024-01-07T05:43:19;97849.19;;;11.38;100.00
9717;BME280;4897;43.570;27.832;2024-01-07T05:45:46;97842.84;;;11.31;100.00
9717;BME280;4897;43.570;27.832;2024-01-07T05:48:13;97795.53;;;11.15;100.00
9717;BME280;4897;43.570;27.832;2024-01-07T05:50:41;97839.84;;;11.34;100.00
9717;BME280;4897;43.570;27.832;2024-01-07T05:53:07;97843.19;;;11.36;100.00
9717;BME280;4897;43.570;27.832;2024-01-07T05:55:34;97821.75;;;11.44;100.00
9717;BME280;4897;43.570;27.832;2024-01-07T05:58:01;97807.91;;;11.41;100.00
9717;BME280;4897;43.570;27.832;2024-01-07T06:00:30;97809.56;;;11.34;100.00
9717;BME280;4897;43.570;27.832;2024-01-07T06:02:57;97819.25;;;11.43;100.00
9717;BME280;4897;43.570;27.832;2024-01-07T06:05:24;97819.94;;;11.37;100.00
9717;BME280;4897;43.570;27.832;2024-01-07T06:07:52;97810.06;;;11.21;100.00
9717;BME280;4897;43.570;27.832;2024-01-07T06:10:19;97824.59;;;11.26;100.00
9717;BME280;4897;43.570;27.832;2024-01-07T06:12:46;97749.69;;;10.78;100.00
9717;BME280;4897;43.570;27.832;2024-01-07T06:15:13;97694.50;;;10.37;100.00
9717;BME280;4897;43.570;27.832;2024-01-07T06:17:40;97810.06;;;11.21;100.00
9717;BME280;4897;43.570;27.832;2024-01-07T06:20:08;97805.38;;;11.31;100.00
9717;BME280;4897;43.570;27.832;2024-01-07T06:22:35;97800.38;;;11.36;100.00
9717;BME280;4897;43.570;27.832;2024-01-07T06:25:05;97768.94;;;11.30;100.00
9717;BME280;4897;43.570;27.832;2024-01-07T06:27:33;97777.78;;;11.47;100.00
9717;BME280;4897;43.570;27.832;2024-01-07T06:30:00;97778.09;;;11.60;100.00
9717;BME280;4897;43.570;27.832;2024-01-07T06:32:28;97768.38;;;11.75;100.00
9717;BME280;4897;43.570;27.832;2024-01-07T06:34:56;97766.19;;;11.70;100.00
9717;BME280;4897;43.570;27.832;2024-01-07T06:37:23;97761.50;;;11.88;100.00
9717;BME280;4897;43.570;27.832;2024-01-07T06:39:50;97770.50;;;12.03;100.00
9717;BME280;4897;43.570;27.832;2024-01-07T06:42:19;97755.56;;;12.09;100.00
9717;BME280;4897;43.570;27.832;2024-01-07T06:44:46;97743.81;;;12.18;100.00
9717;BME280;4897;43.570;27.832;2024-01-07T06:47:15;97748.94;;;12.28;100.00
9717;BME280;4897;43.570;27.832;2024-01-07T06:49:42;97741.22;;;12.33;100.00
9717;BME280;4897;43.570;27.832;2024-01-07T06:52:09;97725.66;;;12.28;100.00
9717;BME280;4897;43.570;27.832;2024-01-07T06:54:36;97739.72;;;12.30;100.00
9717;BME280;4897;43.570;27.832;2024-01-07T06:57:04;97759.09;;;12.40;100.00
9717;BME280;4897;43.570;27.832;2024-01-07T06:59:33;97749.03;;;12.42;100.00
9717;BME280;4897;43.570;27.832;2024-01-07T07:02:00;97694.22;;;12.22;100.00
9717;BME280;4897;43.570;27.832;2024-01-07T07:04:26;97725.22;;;12.47;100.00
9717;BME280;4897;43.570;27.832;2024-01-07T07:06:53;97692.91;;;12.41;100.00
9717;BME280;4897;43.570;27.832;2024-01-07T07:09:21;97698.41;;;12.17;100.00
9717;BME280;4897;43.570;27.832;2024-01-07T07:11:48;97726.28;;;12.61;100.00
9717;BME280;4897;43.570;27.832;2024-01-07T07:14:14;97701.91;;;12.70;100.00
9717;BME280;4897;43.570;27.832;2024-01-07T07:16:43;97708.06;;;12.79;100.00
9717;BME280;4897;43.570;27.832;2024-01-07T07:19:10;97454.50;;;11.34;100.00
9717;BME280;4897;43.570;27.832;2024-01-07T07:21:40;97661.72;;;12.85;100.00
9717;BME280;4897;43.570;27.832;2024-01-07T07:24:07;97665.09;;;13.02;100.00
9717;BME280;4897;43.570;27.832;2024-01-07T07:26:33;97677.41;;;12.96;100.00
9717;BME280;4897;43.570;27.832;2024-01-07T07:29:01;97676.69;;;13.02;100.00
9717;BME280;4897;43.570;27.832;2024-01-07T07:31:28;97646.28;;;12.87;100.00
9717;BME280;4897;43.570;27.832;2024-01-07T07:33:57;97616.50;;;12.82;100.00
9717;BME280;4897;43.570;27.832;2024-01-07T07:36:23;97641.97;;;12.86;100.00
9717;BME280;4897;43.570;27.832;2024-01-07T07:38:50;97619.28;;;12.74;100.00
9717;BME280;4897;43.570;27.832;2024-01-07T07:41:17;97609.47;;;12.81;100.00
9717;BME280;4897;43.570;27.832;2024-01-07T07:43:44;97622.75;;;12.97;100.00
9717;BME280;4897;43.570;27.832;2024-01-07T07:46:11;97619.34;;;13.03;100.00
9717;BME280;4897;43.570;27.832;2024-01-07T07:48:39;97598.97;;;12.94;100.00
9717;BME280;4897;43.570;27.832;2024-01-07T07:51:07;97606.91;;;13.02;100.00
9717;BME280;4897;43.570;27.832;2024-01-07T07:53:33;97611.22;;;13.11;100.00
9717;BME280;4897;43.570;27.832;2024-01-07T07:56:01;97591.22;;;12.99;100.00
9717;BME280;4897;43.570;27.832;2024-01-07T07:58:30;97600.41;;;13.05;100.00
9717;BME280;4897;43.570;27.832;2024-01-07T08:00:57;97626.25;;;13.20;100.00
9717;BME280;4897;43.570;27.832;2024-01-07T08:03:24;97548.50;;;12.60;100.00
9717;BME280;4897;43.570;27.832;2024-01-07T08:05:55;97646.38;;;13.16;100.00
9717;BME280;4897;43.570;27.832;2024-01-07T08:08:23;97671.47;;;13.09;100.00
9717;BME280;4897;43.570;27.832;2024-01-07T08:10:53;97638.94;;;12.89;100.00
9717;BME280;4897;43.570;27.832;2024-01-07T08:13:26;97650.22;;;12.99;100.00
9717;BME280;4897;43.570;27.832;2024-01-07T08:15:55;97651.69;;;13.24;100.00
9717;BME280;4897;43.570;27.832;2024-01-07T08:18:22;97632.91;;;13.24;100.00
9717;BME280;4897;43.570;27.832;2024-01-07T08:20:49;97639.38;;;13.44;100.00
9717;BME280;4897;43.570;27.832;2024-01-07T08:23:16;97645.94;;;13.42;100.00
9717;BME280;4897;43.570;27.832;2024-01-07T08:25:45;97637.63;;;13.66;100.00
9717;BME280;4897;43.570;27.832;2024-01-07T08:28:12;97631.34;;;13.59;100.00
9717;BME280;4897;43.570;27.832;2024-01-07T08:30:38;97616.41;;;13.56;100.00
9717;BME280;4897;43.570;27.832;2024-01-07T08:33:05;97594.94;;;13.56;100.00
9717;BME280;4897;43.570;27.832;2024-01-07T08:35:32;97616.50;;;13.78;100.00
9717;BME280;4897;43.570;27.832;2024-01-07T08:37:59;97620.19;;;13.91;100.00
9717;BME280;4897;43.570;27.832;2024-01-07T08:40:26;97617.47;;;14.06;100.00
9717;BME280;4897;43.570;27.832;2024-01-07T08:42:56;97495.78;;;13.55;100.00
9717;BME280;4897;43.570;27.832;2024-01-07T08:45:23;97592.19;;;14.21;100.00
9717;BME280;4897;43.570;27.832;2024-01-07T08:47:49;97588.78;;;14.13;100.00
9717;BME280;4897;43.570;27.832;2024-01-07T08:50:16;97597.41;;;14.08;100.00
9717;BME280;4897;43.570;27.832;2024-01-07T08:52:43;97576.59;;;13.96;100.00
9717;BME280;4897;43.570;27.832;2024-01-07T08:55:12;97565.97;;;13.88;100.00
9717;BME280;4897;43.570;27.832;2024-01-07T08:57:38;97567.31;;;13.77;100.00
9717;BME280;4897;43.570;27.832;2024-01-07T09:00:08;97594.25;;;13.84;100.00
9717;BME280;4897;43.570;27.832;2024-01-07T09:02:35;97563.81;;;13.77;100.00
9717;BME280;4897;43.570;27.832;2024-01-07T09:05:02;97553.06;;;13.77;100.00
9717;BME280;4897;43.570;27.832;2024-01-07T09:07:29;97553.78;;;13.71;100.00
9717;BME280;4897;43.570;27.832;2024-01-07T09:09:56;97508.78;;;13.37;100.00
9717;BME280;4897;43.570;27.832;2024-01-07T09:12:25;97557.22;;;13.64;100.00
9717;BME280;4897;43.570;27.832;2024-01-07T09:14:51;97573.22;;;13.73;100.00
9717;BME280;4897;43.570;27.832;2024-01-07T09:17:20;97581.09;;;13.89;100.00
9717;BME280;4897;43.570;27.832;2024-01-07T09:19:48;97531.44;;;13.85;100.00
9717;BME280;4897;43.570;27.832;2024-01-07T09:22:15;97563.81;;;14.33;100.00
9717;BME280;4897;43.570;27.832;2024-01-07T09:24:42;97562.88;;;15.58;100.00
9717;BME280;4897;43.570;27.832;2024-01-07T09:27:09;97572.34;;;16.68;100.00
9717;BME280;4897;43.570;27.832;2024-01-07T09:29:36;97573.38;;;16.67;100.00
9717;BME280;4897;43.570;27.832;2024-01-07T09:32:03;97592.56;;;16.12;100.00
9717;BME280;4897;43.570;27.832;2024-01-07T09:34:31;97521.00;;;15.49;100.00
9717;BME280;4897;43.570;27.832;2024-01-07T09:36:58;97577.78;;;15.48;100.00
9717;BME280;4897;43.570;27.832;2024-01-07T09:39:25;97559.13;;;15.18;100.00
9717;BME280;4897;43.570;27.832;2024-01-07T09:41:54;97567.44;;;14.68;100.00
9717;BME280;4897;43.570;27.832;2024-01-07T09:44:20;97578.88;;;14.49;100.00
9717;BME280;4897;43.570;27.832;2024-01-07T09:46:48;97580.97;;;14.32;100.00
9717;BME280;4897;43.570;27.832;2024-01-07T09:49:17;97580.91;;;14.68;100.00
9717;BME280;4897;43.570;27.832;2024-01-07T09:51:46;97578.19;;;14.96;100.00
9717;BME280;4897;43.570;27.832;2024-01-07T09:54:15;97559.25;;;15.85;100.00
9717;BME280;4897;43.570;27.832;2024-01-07T09:56:51;97575.22;;;17.13;100.00
9717;BME280;4897;43.570;27.832;2024-01-07T09:59:24;97551.16;;;16.65;100.00
9717;BME280;4897;43.570;27.832;2024-01-07T10:01:52;97559.56;;;16.10;100.00
9717;BME280;4897;43.570;27.832;2024-01-07T10:04:19;97591.72;;;15.30;100.00
9717;BME280;4897;43.570;27.832;2024-01-07T10:06:47;97587.94;;;14.69;100.00
9717;BME280;4897;43.570;27.832;2024-01-07T10:09:15;97548.09;;;14.16;100.00
9717;BME280;4897;43.570;27.832;2024-01-07T10:11:43;97587.00;;;14.56;100.00
9717;BME280;4897;43.570;27.832;2024-01-07T10:14:10;97596.28;;;14.32;100.00
9717;BME280;4897;43.570;27.832;2024-01-07T10:16:37;97596.63;;;14.29;100.00
9717;BME280;4897;43.570;27.832;2024-01-07T10:19:04;97595.91;;;14.35;100.00
9717;BME280;4897;43.570;27.832;2024-01-07T10:21:33;97574.75;;;14.32;100.00
9717;BME280;4897;43.570;27.832;2024-01-07T10:24:08;97593.97;;;14.14;100.00
9717;BME280;4897;43.570;27.832;2024-01-07T10:26:36;97574.00;;;14.38;100.00
9717;BME280;4897;43.570;27.832;2024-01-07T10:29:03;97552.31;;;14.25;100.00
9717;BME280;4897;43.570;27.832;2024-01-07T10:31:31;97527.75;;;14.49;100.00
9717;BME280;4897;43.570;27.832;2024-01-07T10:33:58;97520.78;;;15.16;100.00
9717;BME280;4897;43.570;27.832;2024-01-07T10:36:25;97499.47;;;14.81;100.00
9717;BME280;4897;43.570;27.832;2024-01-07T10:38:55;97489.03;;;14.71;100.00
9717;BME280;4897;43.570;27.832;2024-01-07T10:41:25;97481.22;;;14.76;100.00
9717;BME280;4897;43.570;27.832;2024-01-07T10:43:52;97465.28;;;14.05;100.00
9717;BME280;4897;43.570;27.832;2024-01-07T10:46:20;97486.03;;;14.11;100.00
9717;BME280;4897;43.570;27.832;2024-01-07T10:48:52;97442.56;;;14.56;100.00
9717;BME280;4897;43.570;27.832;2024-01-07T10:51:20;97440.38;;;14.66;100.00
9717;BME280;4897;43.570;27.832;2024-01-07T10:53:52;97453.56;;;14.33;100.00
9717;BME280;4897;43.570;27.832;2024-01-07T10:56:24;97430.75;;;13.59;100.00
9717;BME280;4897;43.570;27.832;2024-01-07T10:58:52;97403.88;;;13.38;100.00
9717;BME280;4897;43.570;27.832;2024-01-07T11:01:20;97437.78;;;13.82;100.00
9717;BME280;4897;43.570;27.832;2024-01-07T11:03:54;97430.91;;;14.21;100.00
9717;BME280;4897;43.570;27.832;2024-01-07T11:06:31;97453.50;;;14.82;100.00
9717;BME280;4897;43.570;27.832;2024-01-07T11:09:07;97438.53;;;15.07;100.00
9717;BME280;4897;43.570;27.832;2024-01-07T11:11:42;97445.47;;;16.03;100.00
9717;BME280;4897;43.570;27.832;2024-01-07T11:14:34;97463.72;;;16.86;100.00
9717;BME280;4897;43.570;27.832;2024-01-07T11:17:01;97460.56;;;17.66;100.00
9717;BME280;4897;43.570;27.832;2024-01-07T11:19:29;97431.91;;;17.58;100.00
9717;BME280;4897;43.570;27.832;2024-01-07T11:22:21;97438.53;;;17.12;100.00
9717;BME280;4897;43.570;27.832;2024-01-07T11:24:49;97445.28;;;16.18;100.00
9717;BME280;4897;43.570;27.832;2024-01-07T11:27:17;97449.16;;;15.76;100.00
9717;BME280;4897;43.570;27.832;2024-01-07T11:29:52;97443.59;;;16.69;100.00
9717;BME280;4897;43.570;27.832;2024-01-07T11:32:19;97431.53;;;18.17;100.00
9717;BME280;4897;43.570;27.832;2024-01-07T11:34:48;97394.03;;;18.52;100.00
9717;BME280;4897;43.570;27.832;2024-01-07T11:37:19;97412.25;;;18.32;100.00
9717;BME280;4897;43.570;27.832;2024-01-07T11:39:47;97419.16;;;17.72;100.00
9717;BME280;4897;43.570;27.832;2024-01-07T11:42:16;97416.97;;;17.56;100.00
9717;BME280;4897;43.570;27.832;2024-01-07T11:44:47;97379.97;;;17.06;100.00
9717;BME280;4897;43.570;27.832;2024-01-07T11:47:15;97421.22;;;16.68;100.00
9717;BME280;4897;43.570;27.832;2024-01-07T11:49:42;97419.75;;;15.81;100.00
9717;BME280;4897;43.570;27.832;2024-01-07T11:52:10;97420.38;;;15.29;100.00
9717;BME280;4897;43.570;27.832;2024-01-07T11:54:37;97428.78;;;15.06;100.00
9717;BME280;4897;43.570;27.832;2024-01-07T11:57:04;97417.84;;;14.74;100.00
9717;BME280;4897;43.570;27.832;2024-01-07T11:59:33;97424.47;;;14.71;100.00
9717;BME280;4897;43.570;27.832;2024-01-07T12:02:00;97430.78;;;14.57;100.00
9717;BME280;4897;43.570;27.832;2024-01-07T12:04:29;97415.03;;;14.88;100.00
9717;BME280;4897;43.570;27.832;2024-01-07T12:06:57;97425.97;;;15.28;100.00
9717;BME280;4897;43.570;27.832;2024-01-07T12:09:24;97413.34;;;15.28;100.00
9717;BME280;4897;43.570;27.832;2024-01-07T12:11:51;97422.22;;;15.76;100.00
9717;BME280;4897;43.570;27.832;2024-01-07T12:14:19;97417.91;;;16.21;100.00
9717;BME280;4897;43.570;27.832;2024-01-07T12:16:47;97431.81;;;16.50;100.00
9717;BME280;4897;43.570;27.832;2024-01-07T12:19:15;97440.53;;;16.52;100.00
9717;BME280;4897;43.570;27.832;2024-01-07T12:21:44;97407.31;;;16.32;100.00
9717;BME280;4897;43.570;27.832;2024-01-07T12:24:13;97411.53;;;17.05;100.00
9717;BME280;4897;43.570;27.832;2024-01-07T12:26:40;97426.00;;;16.66;100.00
9717;BME280;4897;43.570;27.832;2024-01-07T12:29:07;97440.25;;;15.75;100.00
9717;BME280;4897;43.570;27.832;2024-01-07T12:31:36;97403.13;;;15.04;100.00
9717;BME280;4897;43.570;27.832;2024-01-07T12:34:05;97433.16;;;14.73;100.00
9717;BME280;4897;43.570;27.832;2024-01-07T12:36:33;97448.78;;;14.57;100.00
9717;BME280;4897;43.570;27.832;2024-01-07T12:38:59;97458.59;;;14.64;100.00
9717;BME280;4897;43.570;27.832;2024-01-07T12:41:26;97456.41;;;14.81;100.00
9717;BME280;4897;43.570;27.832;2024-01-07T12:43:54;97460.63;;;14.96;100.00
9717;BME280;4897;43.570;27.832;2024-01-07T12:46:21;97445.16;;;15.59;100.00
9717;BME280;4897;43.570;27.832;2024-01-07T12:48:48;97451.91;;;16.15;100.00
9717;BME280;4897;43.570;27.832;2024-01-07T12:51:16;97449.00;;;16.43;100.00
9717;BME280;4897;43.570;27.832;2024-01-07T12:53:43;97433.25;;;16.07;100.00
9717;BME280;4897;43.570;27.832;2024-01-07T12:56:10;97417.88;;;16.47;100.00
9717;BME280;4897;43.570;27.832;2024-01-07T12:58:38;97419.03;;;17.03;100.00
9717;BME280;4897;43.570;27.832;2024-01-07T13:01:05;97392.97;;;17.28;100.00
9717;BME280;4897;43.570;27.832;2024-01-07T13:03:32;97426.19;;;16.58;100.00